createdAt,value
2022-11-29T00:00:48.753Z,36.90
2022-11-29T00:03:34.051Z,31.83
2022-11-29T00:06:26.500Z,34.53
2022-11-29T00:09:12.911Z,32.45
2022-11-29T00:12:12.733Z,32.38
2022-11-29T00:14:57.380Z,30.30
2022-11-29T00:20:26.829Z,31.00
2022-11-29T00:23:11.667Z,33.30
2022-11-29T00:26:06.146Z,30.95
2022-11-29T00:28:51.114Z,29.67
2022-11-29T00:34:20.299Z,30.85
2022-11-29T00:37:05.225Z,30.10
2022-11-29T00:39:50.146Z,29.65
2022-11-29T00:42:34.715Z,35.15
2022-11-29T00:45:19.551Z,28.70
2022-11-29T00:48:04.594Z,30.45
2022-11-29T00:53:34.883Z,28.27
2022-11-29T00:56:19.682Z,29.65
2022-11-29T00:59:04.362Z,32.13
2022-11-29T01:04:34.269Z,26.92
2022-11-29T01:07:19.456Z,28.00
2022-11-29T01:10:04.805Z,28.73
2022-11-29T01:12:49.759Z,27.60
2022-11-29T01:15:35.484Z,31.90
2022-11-29T01:18:20.360Z,28.20
2022-11-29T01:21:11.697Z,26.38
2022-11-29T01:23:56.890Z,27.48
2022-11-29T01:29:26.154Z,25.42
2022-11-29T01:32:12.111Z,25.10
2022-11-29T01:34:57.052Z,28.23
2022-11-29T01:37:41.960Z,33.20
2022-11-29T01:43:20.404Z,26.20
2022-11-29T01:46:05.297Z,29.30
2022-11-29T01:48:57.286Z,25.70
2022-11-29T01:51:55.365Z,27.30
2022-11-29T01:54:47.526Z,24.65
2022-11-29T01:57:34.623Z,27.60
2022-11-29T02:00:19.884Z,27.70
2022-11-29T02:05:56.596Z,27.30
2022-11-29T02:08:42.898Z,25.63
2022-11-29T02:12:02.094Z,23.23
2022-11-29T02:15:04.594Z,24.33
2022-11-29T02:18:03.686Z,25.48
2022-11-29T02:21:06.810Z,20.52
2022-11-29T02:24:28.908Z,22.67
2022-11-29T02:27:16.672Z,22.45
2022-11-29T02:30:16.394Z,23.45
2022-11-29T02:33:22.128Z,22.42
2022-11-29T02:36:29.689Z,26.20
2022-11-29T02:39:41.957Z,22.90
2022-11-29T02:42:29.395Z,18.67
2022-11-29T02:45:41.033Z,22.67
2022-11-29T02:48:35.478Z,21.13
2022-11-29T02:51:32.193Z,21.13
2022-11-29T02:54:41.436Z,19.58
2022-11-29T02:57:56.473Z,19.85
2022-11-29T03:00:56.583Z,20.10
2022-11-29T03:03:54.776Z,18.50
2022-11-29T03:06:57.914Z,18.63
2022-11-29T03:10:32.106Z,20.77
2022-11-29T03:13:42.484Z,17.50
2022-11-29T03:16:50.799Z,17.17
2022-11-29T03:19:51.073Z,17.90
2022-11-29T03:23:08.026Z,18.23
2022-11-29T03:25:55.928Z,20.02
2022-11-29T03:28:49.431Z,16.52
2022-11-29T03:31:38.597Z,16.92
2022-11-29T03:34:32.095Z,18.15
2022-11-29T03:37:21.991Z,16.95
2022-11-29T03:40:09.013Z,14.95
2022-11-29T03:43:00.581Z,14.20
2022-11-29T03:46:02.596Z,17.98
2022-11-29T03:48:55.963Z,14.88
2022-11-29T03:51:51.442Z,16.45
2022-11-29T03:54:48.209Z,15.00
2022-11-29T03:58:04.813Z,13.30
2022-11-29T04:00:49.433Z,14.13
2022-11-29T04:03:55.799Z,14.32
2022-11-29T04:06:50.091Z,15.60
2022-11-29T04:09:59.663Z,17.65
2022-11-29T04:13:15.088Z,14.38
2022-11-29T04:16:21.443Z,14.63
2022-11-29T04:19:22.519Z,15.07
2022-11-29T04:22:26.107Z,13.80
2022-11-29T04:25:35.186Z,15.95
2022-11-29T04:28:57.107Z,14.00
2022-11-29T04:32:11.573Z,14.70
2022-11-29T04:35:28.729Z,13.68
2022-11-29T04:38:44.755Z,12.48
2022-11-29T04:42:06.123Z,12.70
2022-11-29T04:45:04.207Z,13.70
2022-11-29T04:48:14.861Z,11.75
2022-11-29T04:51:26.627Z,10.90
2022-11-29T04:54:29.878Z,10.82
2022-11-29T04:57:34.335Z,12.57
2022-11-29T05:00:22.105Z,11.55
2022-11-29T05:03:15.879Z,14.57
2022-11-29T05:06:44.372Z,12.90
2022-11-29T05:09:52.426Z,12.52
2022-11-29T05:13:15.577Z,15.70
2022-11-29T05:16:42.583Z,16.05
2022-11-29T05:20:18.284Z,15.90
2022-11-29T05:23:27.392Z,12.45
2022-11-29T05:26:27.221Z,14.30
2022-11-29T06:54:40.860Z,17.42
2022-11-29T06:57:44.065Z,18.13
2022-11-29T07:00:58.558Z,16.83
2022-11-29T07:04:12.201Z,17.55
2022-11-29T07:07:35.547Z,19.63
2022-11-29T07:13:30.246Z,18.48
2022-11-29T07:16:45.417Z,18.65
2022-11-29T07:19:50.720Z,21.65
2022-11-29T07:23:25.356Z,19.70
2022-11-29T07:26:59.719Z,15.18
2022-11-29T07:30:05.667Z,17.65
2022-11-29T07:33:00.336Z,28.20
2022-11-29T07:36:19.920Z,41.17
2022-11-29T07:40:05.278Z,37.63
2022-11-29T07:43:35.923Z,21.45
2022-11-29T07:46:37.023Z,18.73
2022-11-29T07:49:42.514Z,14.98
2022-11-29T07:52:39.269Z,13.68
2022-11-29T07:55:49.950Z,14.82
2022-11-29T07:58:41.586Z,14.98
2022-11-29T08:01:44.524Z,14.75
2022-11-29T08:04:45.750Z,14.98
2022-11-29T08:07:49.813Z,17.67
2022-11-29T08:10:44.033Z,27.77
2022-11-29T08:13:40.757Z,45.05
2022-11-29T08:16:34.159Z,24.33
2022-11-29T08:19:18.811Z,28.40
2022-11-29T08:24:52.208Z,16.77
2022-11-29T08:30:37.387Z,16.05
2022-11-29T08:33:22.401Z,18.52
2022-11-29T08:36:18.473Z,16.42
2022-11-29T08:39:29.632Z,13.00
2022-11-29T08:43:10.821Z,14.27
2022-11-29T08:47:03.889Z,13.98
2022-11-29T08:50:30.228Z,11.55
2022-11-29T08:53:45.545Z,17.67
2022-11-29T09:04:15.300Z,24.35
2022-11-29T09:07:02.306Z,26.70
2022-11-29T09:09:47.770Z,23.42
2022-11-29T09:13:06.526Z,24.15
2022-11-29T09:16:21.960Z,25.73
2022-11-29T09:19:54.787Z,22.70
2022-11-29T09:22:45.547Z,18.65
2022-11-29T09:25:33.515Z,21.95
2022-11-29T09:28:18.483Z,21.70
2022-11-29T09:33:49.598Z,17.95
2022-11-29T09:36:34.613Z,14.68
2022-11-29T09:39:45.201Z,14.90
2022-11-29T09:43:06.384Z,15.80
2022-11-29T09:46:02.363Z,14.05
2022-11-29T09:53:01.708Z,17.35
2022-11-29T09:56:00.771Z,42.90
2022-11-29T09:58:57.051Z,46.38
2022-11-29T10:01:58.118Z,34.20
2022-11-29T10:04:52.558Z,28.60
2022-11-29T10:07:47.329Z,25.50
2022-11-29T10:11:05.780Z,24.25
2022-11-29T10:13:59.192Z,32.85
2022-11-29T10:16:50.459Z,24.02
2022-11-29T10:19:50.314Z,20.73
2022-11-29T10:23:01.325Z,20.35
2022-11-29T10:25:54.968Z,21.38
2022-11-29T10:28:50.887Z,20.60
2022-11-29T10:31:42.575Z,18.42
2022-11-29T10:34:30.419Z,15.25
2022-11-29T10:37:35.371Z,14.85
2022-11-29T10:41:04.584Z,16.05
2022-11-29T10:44:48.890Z,13.75
2022-11-29T10:54:59.445Z,20.90
2022-11-29T10:58:09.134Z,40.85
2022-11-29T11:01:16.453Z,18.88
2022-11-29T11:04:32.408Z,20.63
2022-11-29T11:07:34.413Z,20.92
2022-11-29T11:10:28.466Z,17.00
2022-11-29T11:13:35.602Z,17.08
2022-11-29T11:16:37.801Z,26.60
2022-11-29T11:19:36.472Z,24.23
2022-11-29T11:22:39.254Z,19.10
2022-11-29T11:25:37.100Z,17.05
2022-11-29T11:28:28.360Z,14.88
2022-11-29T11:34:34.754Z,18.15
2022-11-29T11:37:29.897Z,17.02
2022-11-29T11:40:33.888Z,16.15
2022-11-29T11:43:21.215Z,16.67
2022-11-29T11:46:08.123Z,15.75
2022-11-29T11:48:53.455Z,15.05
2022-11-29T11:51:42.266Z,11.23
2022-11-29T11:54:28.839Z,13.70
2022-11-29T11:57:17.740Z,12.93
2022-11-29T12:00:06.998Z,33.65
2022-11-29T12:03:58.525Z,41.88
2022-11-29T12:06:51.403Z,24.38
2022-11-29T12:09:42.528Z,18.77
2022-11-29T12:12:40.732Z,20.75
2022-11-29T12:15:33.892Z,18.95
2022-11-29T12:18:41.671Z,13.68
2022-11-29T12:21:32.620Z,14.10
2022-11-29T12:24:40.058Z,12.85
2022-11-29T12:27:34.393Z,11.63
2022-11-29T12:30:25.530Z,13.52
2022-11-29T12:33:29.771Z,16.58
2022-11-29T12:36:46.915Z,14.48
2022-11-29T12:39:50.309Z,16.20
2022-11-29T12:42:59.190Z,17.00
2022-11-29T12:45:45.057Z,25.35
2022-11-29T12:48:39.641Z,23.38
2022-11-29T12:51:42.786Z,24.42
2022-11-29T12:54:42.495Z,17.80
2022-11-29T12:57:39.202Z,15.55
2022-11-29T13:00:28.493Z,13.52
2022-11-29T13:03:26.873Z,14.38
2022-11-29T13:06:47.071Z,14.88
2022-11-29T13:09:47.516Z,18.98
2022-11-29T13:12:41.341Z,22.13
2022-11-29T13:15:46.075Z,22.05
2022-11-29T13:18:44.671Z,17.48
2022-11-29T13:21:44.133Z,17.13
2022-11-29T13:24:50.542Z,17.70
2022-11-29T13:27:41.989Z,16.25
2022-11-29T13:30:27.135Z,13.48
2022-11-29T13:33:16.379Z,14.90
2022-11-29T13:36:38.191Z,15.93
2022-11-29T13:39:44.526Z,17.75
2022-11-29T13:42:57.260Z,19.23
2022-11-29T13:46:26.676Z,38.95
2022-11-29T13:52:38.836Z,24.23
2022-11-29T13:55:30.701Z,23.02
2022-11-29T13:58:33.334Z,23.98
2022-11-29T14:01:18.228Z,14.25
2022-11-29T14:04:06.784Z,15.57
2022-11-29T14:07:02.645Z,17.67
2022-11-29T14:10:06.248Z,17.23
2022-11-29T14:12:55.233Z,16.75
2022-11-29T14:15:41.454Z,16.13
2022-11-29T14:18:41.254Z,18.95
2022-11-29T14:21:45.917Z,17.10
2022-11-29T14:24:36.550Z,29.70
2022-11-29T14:27:21.459Z,45.38
2022-11-29T14:33:28.288Z,28.13
2022-11-29T14:36:54.245Z,20.00
2022-11-29T14:39:46.363Z,18.67
2022-11-29T14:42:31.347Z,23.00
2022-11-29T14:48:31.158Z,18.15
2022-11-29T14:51:18.789Z,19.52
2022-11-29T14:54:15.347Z,22.20
2022-11-29T14:57:38.546Z,21.17
2022-11-29T15:00:29.422Z,19.02
2022-11-29T15:03:20.850Z,22.48
2022-11-29T15:06:26.232Z,21.05
2022-11-29T15:09:20.315Z,18.52
2022-11-29T15:12:13.848Z,23.48
2022-11-29T15:15:35.716Z,20.02
2022-11-29T15:19:05.201Z,19.23
2022-11-29T15:22:17.474Z,18.92
2022-11-29T15:25:11.529Z,21.67
2022-11-29T15:27:58.456Z,22.45
2022-11-29T15:30:43.556Z,21.67
2022-11-29T15:33:28.919Z,23.20
2022-11-29T15:36:23.572Z,23.42
2022-11-29T15:39:24.794Z,26.38
2022-11-29T15:42:13.041Z,25.40
2022-11-29T15:44:57.956Z,26.15
2022-11-29T15:47:42.843Z,30.52
2022-11-29T15:50:33.145Z,27.77
2022-11-29T15:54:11.646Z,34.47
2022-11-29T15:57:13.126Z,34.35
2022-11-29T16:00:01.658Z,30.83
2022-11-29T16:02:57.518Z,32.78
2022-11-29T16:05:42.612Z,25.85
2022-11-29T16:08:33.559Z,23.00
2022-11-29T16:11:22.907Z,23.55
2022-11-29T16:14:10.539Z,21.77
2022-11-29T16:17:00.033Z,23.15
2022-11-29T16:19:46.306Z,22.27
2022-11-29T16:22:31.846Z,23.75
2022-11-29T16:25:19.779Z,19.83
2022-11-29T16:28:05.379Z,24.30
2022-11-29T16:30:50.466Z,24.30
2022-11-29T16:33:37.672Z,30.55
2022-11-29T16:36:25.949Z,21.40
2022-11-29T16:39:20.082Z,23.40
2022-11-29T16:42:24.650Z,23.95
2022-11-29T16:45:29.169Z,23.45
2022-11-29T16:48:29.030Z,20.27
2022-11-29T16:51:14.515Z,26.60
2022-11-29T16:54:45.051Z,22.20
2022-11-29T16:57:31.190Z,21.95
2022-11-29T17:00:31.934Z,28.02
2022-11-29T17:03:18.479Z,23.75
2022-11-29T17:06:03.161Z,20.48
2022-11-29T17:08:53.774Z,24.67
2022-11-29T17:11:38.400Z,21.88
2022-11-29T17:17:13.806Z,19.25
2022-11-29T17:19:58.317Z,19.83
2022-11-29T17:22:43.275Z,21.05
2022-11-29T17:25:28.422Z,20.00
2022-11-29T17:30:57.853Z,21.25
2022-11-29T17:33:43.290Z,23.63
2022-11-29T17:39:14.885Z,20.73
2022-11-29T17:41:59.478Z,21.27
2022-11-29T17:44:44.559Z,21.52
2022-11-29T17:47:29.460Z,24.75
2022-11-29T17:52:58.913Z,23.45
2022-11-29T17:55:43.302Z,22.95
2022-11-29T17:58:27.962Z,25.48
2022-11-29T18:01:19.362Z,21.65
2022-11-29T18:04:06.140Z,22.05
2022-11-29T18:06:50.996Z,21.05
2022-11-29T18:09:35.910Z,20.08
2022-11-29T18:15:06.865Z,23.02
2022-11-29T18:20:35.896Z,22.85
2022-11-29T18:23:20.166Z,22.20
2022-11-29T18:26:12.228Z,21.67
2022-11-29T18:28:58.317Z,23.80
2022-11-29T18:31:44.495Z,27.20
2022-11-29T18:34:29.461Z,25.75
2022-11-29T18:40:18.587Z,25.58
2022-11-29T18:43:03.636Z,28.00
2022-11-29T18:45:48.674Z,26.67
2022-11-29T18:48:33.564Z,28.95
2022-11-29T18:51:19.927Z,23.60
2022-11-29T18:54:05.665Z,32.70
2022-11-29T18:56:51.129Z,26.52
2022-11-29T18:59:35.882Z,29.17
2022-11-29T19:02:21.046Z,28.92
2022-11-29T19:07:50.600Z,29.42
2022-11-29T19:13:21.455Z,30.17
2022-11-29T19:18:59.696Z,27.60
2022-11-29T19:21:44.514Z,28.48
2022-11-29T19:27:14.011Z,26.25
2022-11-29T19:32:43.516Z,29.08
2022-11-29T19:38:14.790Z,27.40
2022-11-29T19:43:44.658Z,30.30
2022-11-29T19:46:41.136Z,28.48
2022-11-29T19:49:25.906Z,28.48
2022-11-29T19:52:10.737Z,30.50
2022-11-29T19:54:57.513Z,32.50
2022-11-29T19:57:42.391Z,31.23
2022-11-29T20:00:27.585Z,33.40
2022-11-29T20:03:12.599Z,36.22
2022-11-29T20:05:57.360Z,33.30
2022-11-29T20:08:43.419Z,32.40
2022-11-29T20:11:28.422Z,30.58
2022-11-29T20:16:58.871Z,32.08
2022-11-29T20:19:44.073Z,32.70
2022-11-29T20:22:29.178Z,34.67
2022-11-29T20:25:14.034Z,28.45
2022-11-29T20:27:59.184Z,32.58
2022-11-29T20:30:44.018Z,28.52
2022-11-29T20:33:28.652Z,29.85
2022-11-29T20:39:28.261Z,30.20
2022-11-29T20:42:28.598Z,32.47
2022-11-29T20:45:15.225Z,47.33
2022-11-29T20:48:11.420Z,53.50
2022-11-29T20:50:59.255Z,42.17
2022-11-29T20:53:45.583Z,38.65
2022-11-29T20:56:30.192Z,29.88
2022-11-29T20:59:14.698Z,31.63
2022-11-29T21:04:45.534Z,38.17
2022-11-29T21:07:30.647Z,45.78
2022-11-29T21:10:15.726Z,53.90
2022-11-29T21:15:46.071Z,31.63
2022-11-29T21:18:32.013Z,27.88
2022-11-29T21:21:52.393Z,27.05
2022-11-29T21:24:52.368Z,23.60
2022-11-29T21:27:37.381Z,25.90
2022-11-29T21:33:08.916Z,27.83
2022-11-29T21:35:57.519Z,26.40
2022-11-29T21:38:42.358Z,35.72
2022-11-29T21:41:27.243Z,41.63
2022-11-29T21:46:56.898Z,25.15
2022-11-29T21:49:41.972Z,27.13
2022-11-29T21:52:26.698Z,23.13
2022-11-29T21:55:11.538Z,24.85
2022-11-29T21:57:56.327Z,24.42
2022-11-29T22:00:42.370Z,23.95
2022-11-29T22:03:27.462Z,24.77
2022-11-29T22:08:59.364Z,20.50
2022-11-29T22:11:43.991Z,21.40
2022-11-29T22:17:13.377Z,22.60
2022-11-29T22:19:58.382Z,20.55
2022-11-29T22:25:27.729Z,19.00
2022-11-29T22:31:08.413Z,18.85
2022-11-29T22:33:54.524Z,17.92
2022-11-29T22:36:40.180Z,18.50
2022-11-29T22:39:25.370Z,18.13
2022-11-29T22:42:10.251Z,21.15
2022-11-29T22:47:39.615Z,17.98
2022-11-29T22:50:24.958Z,20.85
2022-11-29T22:53:09.620Z,17.05
2022-11-29T22:58:45.953Z,16.10
2022-11-29T23:04:16.652Z,13.90
2022-11-29T23:07:01.245Z,14.93
2022-11-29T23:12:30.644Z,16.52
2022-11-29T23:18:00.253Z,18.63
2022-11-29T23:20:45.126Z,16.60
2022-11-29T23:23:30.570Z,18.23
2022-11-29T23:26:24.876Z,15.15
2022-11-29T23:29:12.422Z,17.13
2022-11-29T23:31:57.057Z,16.67
2022-11-29T23:34:41.916Z,17.90
2022-11-29T23:37:26.480Z,15.25
2022-11-29T23:42:56.368Z,15.90
2022-11-29T23:48:26.571Z,20.73
2022-11-29T23:51:12.539Z,19.65
2022-11-29T23:53:57.513Z,20.98
2022-11-29T23:56:42.340Z,20.33
2022-11-29T23:59:27.398Z,20.25
